createdAt,value
2022-12-27T00:00:03.382Z,2.58
2022-12-27T00:02:30.324Z,2.85
2022-12-27T00:04:57.325Z,2.72
2022-12-27T00:07:24.285Z,2.47
2022-12-27T00:09:51.399Z,3.28
2022-12-27T00:12:18.181Z,3.17
2022-12-27T00:14:45.150Z,2.60
2022-12-27T00:17:12.741Z,2.45
2022-12-27T00:19:39.539Z,2.35
2022-12-27T00:22:06.375Z,3.78
2022-12-27T00:24:35.282Z,3.28
2022-12-27T00:27:02.359Z,2.90
2022-12-27T00:29:29.225Z,2.25
2022-12-27T00:31:56.047Z,3.03
2022-12-27T00:34:22.936Z,3.10
2022-12-27T00:36:49.747Z,2.92
2022-12-27T00:39:17.089Z,2.90
2022-12-27T00:41:43.912Z,3.50
2022-12-27T00:44:11.043Z,4.07
2022-12-27T00:46:38.151Z,4.10
2022-12-27T00:49:05.041Z,3.55
2022-12-27T00:51:32.011Z,3.80
2022-12-27T00:53:59.703Z,3.08
2022-12-27T00:56:29.649Z,3.03
2022-12-27T00:58:59.114Z,3.38
2022-12-27T01:01:27.880Z,3.53
2022-12-27T01:03:54.814Z,3.67
2022-12-27T01:06:23.729Z,3.33
2022-12-27T01:08:51.143Z,4.32
2022-12-27T01:11:19.118Z,3.33
2022-12-27T01:13:46.209Z,3.50
2022-12-27T01:16:15.830Z,3.45
2022-12-27T01:18:43.321Z,3.25
2022-12-27T01:21:13.586Z,3.63
2022-12-27T01:23:40.910Z,3.90
2022-12-27T01:26:11.962Z,4.47
2022-12-27T01:28:38.867Z,3.55
2022-12-27T01:31:17.393Z,3.90
2022-12-27T01:33:44.331Z,3.97
2022-12-27T01:36:19.661Z,3.22
2022-12-27T01:38:48.246Z,4.22
2022-12-27T01:41:39.470Z,4.25
2022-12-27T01:44:40.077Z,4.45
2022-12-27T01:47:13.007Z,4.38
2022-12-27T01:50:00.282Z,5.22
2022-12-27T01:52:51.324Z,3.50
2022-12-27T01:55:48.936Z,3.88
2022-12-27T01:58:25.889Z,3.55
2022-12-27T02:00:54.450Z,3.85
2022-12-27T02:03:34.162Z,4.28
2022-12-27T02:06:02.927Z,4.57
2022-12-27T02:08:41.187Z,4.10
2022-12-27T02:11:09.237Z,3.88
2022-12-27T02:13:38.787Z,3.70
2022-12-27T02:16:14.628Z,4.20
2022-12-27T02:18:41.723Z,4.45
2022-12-27T02:21:27.523Z,4.10
2022-12-27T02:24:17.508Z,3.85
2022-12-27T02:27:03.315Z,5.22
2022-12-27T02:29:36.551Z,3.67
2022-12-27T02:32:15.363Z,3.47
2022-12-27T02:35:19.765Z,4.90
2022-12-27T02:37:50.068Z,4.32
2022-12-27T02:40:38.039Z,3.83
2022-12-27T02:43:24.109Z,4.43
2022-12-27T02:46:27.796Z,4.80
2022-12-27T02:52:28.336Z,4.15
2022-12-27T02:57:48.454Z,4.88
2022-12-27T03:00:42.210Z,4.03
2022-12-27T03:03:29.020Z,5.43
2022-12-27T03:06:19.441Z,3.88
2022-12-27T03:09:03.197Z,5.07
2022-12-27T03:15:08.398Z,4.07
2022-12-27T03:17:44.829Z,4.40
2022-12-27T03:20:36.521Z,4.78
2022-12-27T03:23:37.209Z,4.88
2022-12-27T03:26:13.776Z,5.18
2022-12-27T03:29:07.455Z,4.93
2022-12-27T03:32:02.174Z,5.22
2022-12-27T03:34:38.297Z,4.28
2022-12-27T03:37:40.345Z,6.20
2022-12-27T03:43:34.565Z,4.45
2022-12-27T03:49:41.676Z,4.82
2022-12-27T03:52:28.827Z,4.78
2022-12-27T03:54:57.394Z,5.20
2022-12-27T03:57:37.277Z,5.32
2022-12-27T04:00:06.363Z,4.45
2022-12-27T04:02:33.571Z,4.40
2022-12-27T04:05:00.722Z,4.75
2022-12-27T04:07:27.605Z,4.90
2022-12-27T04:10:13.116Z,4.72
2022-12-27T04:13:00.626Z,4.65
2022-12-27T04:15:49.091Z,4.65
2022-12-27T04:18:37.436Z,4.63
2022-12-27T04:21:22.892Z,4.40
2022-12-27T04:24:08.428Z,4.07
2022-12-27T04:26:53.917Z,4.55
2022-12-27T04:29:39.403Z,5.80
2022-12-27T04:32:24.857Z,4.82
2022-12-27T04:34:51.687Z,4.90
2022-12-27T04:37:19.890Z,5.13
2022-12-27T04:40:06.406Z,3.38
2022-12-27T04:42:52.171Z,4.97
2022-12-27T04:45:37.562Z,3.85
2022-12-27T04:48:23.885Z,4.65
2022-12-27T04:51:09.683Z,5.32
2022-12-27T04:53:55.069Z,5.20
2022-12-27T04:56:21.933Z,4.72
2022-12-27T04:59:07.502Z,4.55
2022-12-27T05:01:53.286Z,5.45
2022-12-27T05:04:20.192Z,4.55
2022-12-27T05:06:47.180Z,5.03
2022-12-27T05:09:32.846Z,4.68
2022-12-27T05:12:18.184Z,4.25
2022-12-27T05:14:44.990Z,5.28
2022-12-27T05:17:11.895Z,5.05
2022-12-27T05:19:38.695Z,5.13
2022-12-27T05:22:24.499Z,5.68
2022-12-27T05:25:10.004Z,5.32
2022-12-27T05:27:36.842Z,5.50
2022-12-27T05:30:04.286Z,4.68
2022-12-27T05:32:31.121Z,5.20
2022-12-27T05:34:57.990Z,5.32
2022-12-27T05:37:24.829Z,5.50
2022-12-27T05:39:51.653Z,5.32
2022-12-27T05:42:18.464Z,4.80
2022-12-27T05:44:45.385Z,5.88
2022-12-27T05:47:12.215Z,5.60
2022-12-27T05:49:39.625Z,5.85
2022-12-27T05:52:06.435Z,5.03
2022-12-27T05:54:33.305Z,7.22
2022-12-27T05:57:00.119Z,5.07
2022-12-27T05:59:27.186Z,4.85
2022-12-27T06:01:54.231Z,5.93
2022-12-27T06:04:21.251Z,4.90
2022-12-27T06:06:48.058Z,5.10
2022-12-27T06:09:14.902Z,4.53
2022-12-27T06:11:41.895Z,5.00
2022-12-27T06:14:08.777Z,5.38
2022-12-27T06:16:35.649Z,5.43
2022-12-27T06:19:03.748Z,5.22
2022-12-27T06:21:30.787Z,4.05
2022-12-27T06:23:57.741Z,3.90
2022-12-27T06:26:26.704Z,5.03
2022-12-27T06:28:55.326Z,4.15
2022-12-27T06:31:23.093Z,4.82
2022-12-27T06:33:51.236Z,4.05
2022-12-27T06:36:20.812Z,4.57
2022-12-27T06:38:48.079Z,4.90
2022-12-27T06:41:20.194Z,5.53
2022-12-27T06:43:47.548Z,4.97
2022-12-27T06:46:18.156Z,5.75
2022-12-27T06:48:48.403Z,5.13
2022-12-27T06:51:17.925Z,6.13
2022-12-27T06:53:44.883Z,5.75
2022-12-27T06:56:18.055Z,5.40
2022-12-27T06:58:48.698Z,5.07
2022-12-27T07:01:18.119Z,5.13
2022-12-27T07:03:49.664Z,5.40
2022-12-27T07:06:16.531Z,5.07
2022-12-27T07:08:43.386Z,4.78
2022-12-27T07:11:12.114Z,4.70
2022-12-27T07:13:41.751Z,4.07
2022-12-27T07:16:11.466Z,4.25
2022-12-27T07:18:38.879Z,5.07
2022-12-27T07:21:07.706Z,4.25
2022-12-27T07:23:35.909Z,4.95
2022-12-27T07:26:04.555Z,4.20
2022-12-27T07:28:31.538Z,4.18
2022-12-27T07:30:58.386Z,3.60
2022-12-27T07:33:25.279Z,4.07
2022-12-27T07:36:00.079Z,4.40
2022-12-27T07:38:27.105Z,4.03
2022-12-27T07:40:54.144Z,4.00
2022-12-27T07:43:20.996Z,4.28
2022-12-27T07:45:47.856Z,3.72
2022-12-27T07:48:14.660Z,3.78
2022-12-27T07:50:41.476Z,3.70
2022-12-27T07:53:08.427Z,3.80
2022-12-27T07:55:35.282Z,3.70
2022-12-27T07:58:02.068Z,4.18
2022-12-27T08:00:30.186Z,4.95
2022-12-27T08:02:57.059Z,4.00
2022-12-27T08:05:27.644Z,3.55
2022-12-27T08:07:56.113Z,3.33
2022-12-27T08:10:22.935Z,3.25
2022-12-27T08:12:49.714Z,3.15
2022-12-27T08:15:16.622Z,3.55
2022-12-27T08:17:43.461Z,3.13
2022-12-27T08:20:16.215Z,3.25
2022-12-27T08:22:43.016Z,4.55
2022-12-27T08:25:10.254Z,3.08
2022-12-27T08:27:38.600Z,3.63
2022-12-27T08:30:06.012Z,3.38
2022-12-27T08:32:32.806Z,3.55
2022-12-27T08:35:18.456Z,3.30
2022-12-27T08:38:03.759Z,3.88
2022-12-27T08:40:31.020Z,3.50
2022-12-27T08:42:57.871Z,3.70
2022-12-27T08:45:24.677Z,4.70
2022-12-27T08:47:51.554Z,3.15
2022-12-27T08:50:18.408Z,4.65
2022-12-27T08:52:45.180Z,2.38
2022-12-27T08:55:12.281Z,4.15
2022-12-27T08:57:39.053Z,2.53
2022-12-27T09:00:07.036Z,2.97
2022-12-27T09:02:34.023Z,3.45
2022-12-27T09:05:00.837Z,3.38
2022-12-27T09:07:27.670Z,2.58
2022-12-27T09:09:54.449Z,2.90
2022-12-27T09:12:21.302Z,4.07
2022-12-27T09:14:48.081Z,3.65
2022-12-27T09:17:14.973Z,2.80
2022-12-27T09:19:41.798Z,2.70
2022-12-27T09:22:08.615Z,3.25
2022-12-27T09:24:35.763Z,2.45
2022-12-27T09:27:02.570Z,2.75
2022-12-27T09:29:29.346Z,2.97
2022-12-27T09:31:56.175Z,2.83
2022-12-27T09:34:22.972Z,2.78
2022-12-27T09:36:49.800Z,3.65
2022-12-27T09:39:17.310Z,3.47
2022-12-27T09:45:21.580Z,2.75
2022-12-27T09:47:55.483Z,3.03
2022-12-27T09:50:26.322Z,2.95
2022-12-27T09:53:03.095Z,2.88
2022-12-27T09:55:35.043Z,2.85
2022-12-27T09:58:22.937Z,4.53
2022-12-27T10:00:53.035Z,2.97
2022-12-27T10:03:24.580Z,3.45
2022-12-27T10:06:16.560Z,3.40
2022-12-27T10:09:07.190Z,3.45
2022-12-27T10:11:54.274Z,3.30
2022-12-27T10:15:04.829Z,3.33
2022-12-27T10:17:52.845Z,2.92
2022-12-27T10:20:49.153Z,3.15
2022-12-27T10:23:23.643Z,3.30
2022-12-27T10:25:58.212Z,4.03
2022-12-27T10:28:33.985Z,2.50
2022-12-27T10:31:03.275Z,3.20
2022-12-27T10:33:32.735Z,3.20
2022-12-27T10:36:00.127Z,3.10
2022-12-27T10:38:32.626Z,3.72
2022-12-27T10:41:32.564Z,2.63
2022-12-27T10:43:59.400Z,3.10
2022-12-27T10:46:33.145Z,3.45
2022-12-27T10:49:20.470Z,2.88
2022-12-27T10:51:49.292Z,4.82
2022-12-27T10:54:36.878Z,3.20
2022-12-27T10:57:27.006Z,3.75
2022-12-27T11:00:22.282Z,3.17
2022-12-27T11:03:00.840Z,3.63
2022-12-27T11:05:30.289Z,3.40
2022-12-27T11:07:57.250Z,3.25
2022-12-27T11:10:33.758Z,3.53
2022-12-27T11:13:05.445Z,3.20
2022-12-27T11:15:36.930Z,3.20
2022-12-27T11:18:19.050Z,3.28
2022-12-27T11:20:57.331Z,4.35
2022-12-27T11:23:32.226Z,5.35
2022-12-27T11:26:04.586Z,4.28
2022-12-27T11:28:52.934Z,2.58
2022-12-27T11:31:40.276Z,2.85
2022-12-27T11:34:31.319Z,3.40
2022-12-27T11:37:10.852Z,3.20
2022-12-27T11:39:42.341Z,3.30
2022-12-27T11:42:21.274Z,2.72
2022-12-27T11:45:10.791Z,3.35
2022-12-27T11:47:49.617Z,3.15
2022-12-27T11:50:28.765Z,3.47
2022-12-27T11:53:37.321Z,2.90
2022-12-27T11:56:24.196Z,2.97
2022-12-27T11:59:28.206Z,3.28
2022-12-27T12:02:04.055Z,3.22
2022-12-27T12:05:08.216Z,3.25
2022-12-27T12:07:52.930Z,2.58
2022-12-27T12:10:31.246Z,3.10
2022-12-27T12:13:08.172Z,3.50
2022-12-27T12:16:10.122Z,3.35
2022-12-27T12:19:27.249Z,3.53
2022-12-27T12:22:38.353Z,2.83
2022-12-27T12:25:32.163Z,2.50
2022-12-27T12:28:56.817Z,2.95
2022-12-27T12:31:37.463Z,2.83
2022-12-27T12:34:24.788Z,2.70
2022-12-27T12:37:02.284Z,3.50
2022-12-27T12:39:56.755Z,2.85
2022-12-27T12:42:42.856Z,2.70
2022-12-27T12:45:32.098Z,2.70
2022-12-27T12:48:11.221Z,2.78
2022-12-27T12:51:05.111Z,2.78
2022-12-27T12:54:06.601Z,3.08
2022-12-27T12:57:03.849Z,2.65
2022-12-27T12:59:41.063Z,3.33
2022-12-27T13:02:38.732Z,3.67
2022-12-27T13:05:26.066Z,3.20
2022-12-27T13:08:23.592Z,3.03
2022-12-27T13:11:22.928Z,2.88
2022-12-27T13:13:49.668Z,2.80
2022-12-27T13:16:34.653Z,2.88
2022-12-27T13:19:34.854Z,2.72
2022-12-27T13:22:07.644Z,3.38
2022-12-27T13:24:56.361Z,3.25
2022-12-27T13:27:26.014Z,4.00
2022-12-27T13:30:07.926Z,5.53
2022-12-27T13:32:46.775Z,3.25
2022-12-27T13:35:35.699Z,3.42
2022-12-27T13:38:23.732Z,3.00
2022-12-27T13:41:28.041Z,2.58
2022-12-27T13:44:54.344Z,3.47
2022-12-27T13:47:32.418Z,3.95
2022-12-27T13:49:59.270Z,2.55
2022-12-27T13:52:38.124Z,3.05
2022-12-27T13:55:22.221Z,3.38
2022-12-27T13:58:26.230Z,2.63
2022-12-27T14:01:15.931Z,2.70
2022-12-27T14:04:01.275Z,3.63
2022-12-27T14:06:29.760Z,2.33
2022-12-27T14:12:34.801Z,2.50
2022-12-27T14:15:05.178Z,2.88
2022-12-27T14:17:46.262Z,4.05
2022-12-27T14:20:46.196Z,3.55
2022-12-27T14:23:22.182Z,3.15
2022-12-27T14:26:10.637Z,1.65
2022-12-27T14:28:41.916Z,1.60
2022-12-27T14:31:11.700Z,1.95
2022-12-27T14:34:20.016Z,2.40
2022-12-27T14:37:10.349Z,1.90
2022-12-27T14:40:08.184Z,1.75
2022-12-27T14:43:05.579Z,3.00
2022-12-27T14:46:03.279Z,2.20
2022-12-27T14:48:45.014Z,2.88
2022-12-27T14:54:49.639Z,3.30
2022-12-27T14:57:51.193Z,1.83
2022-12-27T15:00:28.675Z,2.50
2022-12-27T15:03:21.950Z,3.20
2022-12-27T15:06:27.335Z,1.88
2022-12-27T15:09:06.949Z,2.10
2022-12-27T15:11:44.890Z,2.00
2022-12-27T15:14:35.240Z,2.58
2022-12-27T15:17:44.308Z,3.67
2022-12-27T15:20:32.850Z,4.07
2022-12-27T15:23:22.661Z,3.15
2022-12-27T15:26:28.110Z,3.08
2022-12-27T15:29:06.749Z,2.10
2022-12-27T15:31:47.901Z,1.75
2022-12-27T15:34:36.552Z,2.50
2022-12-27T15:37:03.801Z,2.45
2022-12-27T15:39:33.706Z,3.25
2022-12-27T15:42:19.044Z,2.33
2022-12-27T15:45:07.394Z,2.83
2022-12-27T15:47:58.595Z,2.28
2022-12-27T15:51:22.556Z,2.40
2022-12-27T15:53:57.469Z,2.55
2022-12-27T15:57:11.893Z,2.45
2022-12-27T15:59:48.258Z,3.17
2022-12-27T16:02:20.783Z,3.60
2022-12-27T16:04:53.912Z,3.28
2022-12-27T16:07:37.688Z,3.17
2022-12-27T16:10:32.782Z,2.97
2022-12-27T16:13:05.265Z,4.50
2022-12-27T16:15:52.847Z,2.90
2022-12-27T16:18:19.842Z,3.70
2022-12-27T16:21:13.938Z,4.28
2022-12-27T16:23:46.820Z,3.95
2022-12-27T16:26:17.886Z,4.78
2022-12-27T16:28:56.938Z,4.47
2022-12-27T16:31:26.936Z,3.70
2022-12-27T16:33:59.145Z,3.08
2022-12-27T16:36:31.375Z,3.80
2022-12-27T16:39:17.873Z,4.20
2022-12-27T16:41:56.540Z,3.63
2022-12-27T16:44:28.065Z,3.10
2022-12-27T16:47:25.744Z,2.95
2022-12-27T16:50:25.620Z,3.17
2022-12-27T16:53:10.273Z,3.40
2022-12-27T16:55:43.495Z,3.50
2022-12-27T16:58:20.801Z,3.15
2022-12-27T17:00:52.859Z,3.28
2022-12-27T17:03:32.815Z,2.85
2022-12-27T17:09:09.721Z,2.75
2022-12-27T17:11:52.124Z,3.22
2022-12-27T17:14:30.059Z,4.80
2022-12-27T17:17:09.198Z,2.88
2022-12-27T17:19:55.181Z,3.42
2022-12-27T17:22:22.608Z,4.50
2022-12-27T17:24:51.635Z,2.90
2022-12-27T17:27:54.266Z,4.03
2022-12-27T17:30:23.059Z,2.55
2022-12-27T17:33:21.471Z,3.95
2022-12-27T17:35:57.467Z,4.35
2022-12-27T17:38:42.449Z,2.88
2022-12-27T17:41:52.557Z,4.55
2022-12-27T17:44:40.283Z,3.90
2022-12-27T17:47:50.105Z,3.08
2022-12-27T17:50:21.615Z,3.15
2022-12-27T17:53:29.220Z,2.70
2022-12-27T17:56:29.636Z,2.85
2022-12-27T17:59:11.551Z,4.40
2022-12-27T18:01:44.213Z,4.15
2022-12-27T18:04:28.155Z,2.75
2022-12-27T18:07:03.065Z,3.33
2022-12-27T18:09:38.162Z,3.35
2022-12-27T18:12:11.191Z,2.35
2022-12-27T18:17:05.658Z,3.47
2022-12-27T18:19:32.953Z,2.83
2022-12-27T18:22:02.466Z,2.53
2022-12-27T18:24:32.451Z,2.72
2022-12-27T18:27:05.146Z,2.63
2022-12-27T18:29:33.377Z,3.38
2022-12-27T18:32:04.846Z,3.42
2022-12-27T18:34:42.373Z,5.05
2022-12-27T18:37:27.765Z,3.45
2022-12-27T18:40:00.557Z,3.20
2022-12-27T18:42:35.694Z,3.58
2022-12-27T18:45:08.972Z,3.30
2022-12-27T18:47:40.288Z,3.50
2022-12-27T18:50:17.660Z,3.10
2022-12-27T18:52:49.843Z,2.45
2022-12-27T18:55:26.941Z,3.58
2022-12-27T18:58:20.180Z,5.03
2022-12-27T19:00:50.453Z,4.90
2022-12-27T19:03:19.956Z,5.18
2022-12-27T19:06:11.195Z,3.63
2022-12-27T19:08:40.478Z,3.17
2022-12-27T19:11:08.083Z,3.70
2022-12-27T19:13:47.096Z,4.32
2022-12-27T19:16:34.538Z,6.15
2022-12-27T19:19:18.061Z,3.00
2022-12-27T19:21:44.927Z,2.92
2022-12-27T19:24:22.065Z,4.15
2022-12-27T19:26:49.321Z,3.67
2022-12-27T19:29:18.345Z,3.50
2022-12-27T19:32:01.150Z,3.42
2022-12-27T19:34:41.026Z,3.72
2022-12-27T19:37:07.908Z,3.47
2022-12-27T19:39:36.447Z,3.50
2022-12-27T19:42:06.737Z,2.75
2022-12-27T19:44:33.851Z,3.13
2022-12-27T19:47:01.069Z,4.00
2022-12-27T19:49:44.710Z,3.70
2022-12-27T19:52:21.579Z,3.85
2022-12-27T19:54:52.996Z,3.40
2022-12-27T19:57:22.123Z,5.18
2022-12-27T19:59:49.137Z,2.72
2022-12-27T20:02:16.188Z,3.35
2022-12-27T20:04:43.294Z,2.97
2022-12-27T20:07:21.981Z,3.53
2022-12-27T20:09:51.202Z,3.45
2022-12-27T20:12:18.323Z,2.70
2022-12-27T20:14:45.701Z,2.72
2022-12-27T20:17:12.656Z,3.10
2022-12-27T20:19:39.601Z,2.92
2022-12-27T20:22:06.758Z,3.13
2022-12-27T20:24:35.172Z,4.07
2022-12-27T20:27:02.137Z,3.63
2022-12-27T20:29:30.482Z,3.70
2022-12-27T20:31:58.261Z,3.33
2022-12-27T20:34:25.536Z,3.33
2022-12-27T20:36:55.222Z,3.22
2022-12-27T20:39:22.470Z,3.38
2022-12-27T20:41:49.483Z,2.92
2022-12-27T20:44:16.682Z,3.05
2022-12-27T20:46:43.856Z,2.80
2022-12-27T20:49:10.930Z,2.78
2022-12-27T20:51:38.014Z,3.38
2022-12-27T20:54:05.195Z,3.58
2022-12-27T20:56:32.631Z,3.65
2022-12-27T20:59:00.143Z,2.83
2022-12-27T21:01:27.907Z,2.78
2022-12-27T21:03:56.876Z,2.95
2022-12-27T21:06:26.651Z,4.05
2022-12-27T21:08:57.120Z,3.22
2022-12-27T21:11:27.701Z,2.92
2022-12-27T21:13:55.456Z,3.20
2022-12-27T21:16:25.127Z,4.00
2022-12-27T21:18:52.573Z,3.33
2022-12-27T21:21:21.949Z,3.33
2022-12-27T21:23:49.711Z,2.78
2022-12-27T21:26:19.568Z,3.28
2022-12-27T21:28:47.217Z,2.80
2022-12-27T21:31:15.510Z,4.43
2022-12-27T21:33:43.019Z,3.80
2022-12-27T21:36:15.194Z,3.42
2022-12-27T21:38:42.751Z,4.20
2022-12-27T21:41:19.538Z,3.78
2022-12-27T21:43:48.148Z,3.65
2022-12-27T21:46:18.029Z,4.57
2022-12-27T21:48:45.669Z,3.47
2022-12-27T21:51:15.379Z,3.70
2022-12-27T21:53:42.891Z,3.15
2022-12-27T21:56:14.189Z,2.67
2022-12-27T21:58:42.115Z,3.15
2022-12-27T22:01:17.448Z,3.03
2022-12-27T22:03:48.410Z,3.95
2022-12-27T22:06:21.862Z,2.90
2022-12-27T22:08:53.833Z,2.97
2022-12-27T22:11:59.741Z,2.78
2022-12-27T22:14:30.582Z,3.42
2022-12-27T22:17:09.297Z,3.15
2022-12-27T22:19:36.154Z,2.60
2022-12-27T22:22:04.845Z,3.13
2022-12-27T22:24:31.867Z,3.13
2022-12-27T22:26:59.056Z,2.63
2022-12-27T22:29:30.375Z,2.85
2022-12-27T22:32:00.223Z,3.67
2022-12-27T22:34:27.266Z,3.08
2022-12-27T22:36:54.381Z,2.90
2022-12-27T22:39:21.353Z,3.63
2022-12-27T22:41:48.288Z,2.85
2022-12-27T22:44:15.618Z,2.70
2022-12-27T22:49:31.388Z,3.00
2022-12-27T22:51:58.488Z,2.75
2022-12-27T22:55:04.365Z,2.65
2022-12-27T22:57:12.394Z,2.42
2022-12-27T22:59:39.369Z,2.65
2022-12-27T23:02:06.419Z,2.00
2022-12-27T23:04:33.477Z,2.60
2022-12-27T23:07:02.284Z,2.30
2022-12-27T23:09:29.544Z,2.58
2022-12-27T23:11:56.527Z,2.25
2022-12-27T23:14:23.821Z,3.20
2022-12-27T23:16:51.328Z,3.08
2022-12-27T23:19:21.040Z,2.35
2022-12-27T23:21:49.151Z,2.75
2022-12-27T23:24:16.464Z,2.47
2022-12-27T23:26:44.015Z,2.00
2022-12-27T23:29:14.633Z,2.58
2022-12-27T23:31:54.927Z,2.30
2022-12-27T23:34:27.695Z,2.67
2022-12-27T23:36:55.793Z,2.80
2022-12-27T23:39:22.871Z,2.88
2022-12-27T23:41:49.885Z,2.40
2022-12-27T23:44:21.253Z,2.83
2022-12-27T23:47:02.863Z,2.90
2022-12-27T23:49:31.022Z,2.67
2022-12-27T23:51:58.007Z,2.42
2022-12-27T23:54:25.180Z,2.97
2022-12-27T23:56:52.184Z,3.45
2022-12-27T23:59:19.088Z,3.47
